sensor_id;sensor_type;location;lat;lon;timestamp;temperature;humidity
1812;DHT22;904;47.814;11.134;2023-08-06T00:01:52;16.70;99.90
1812;DHT22;904;47.814;11.134;2023-08-06T00:04:19;16.70;99.90
1812;DHT22;904;47.814;11.134;2023-08-06T00:06:46;16.70;99.90
1812;DHT22;904;47.814;11.134;2023-08-06T00:09:14;16.60;99.90
1812;DHT22;904;47.814;11.134;2023-08-06T00:11:41;16.60;99.90
1812;DHT22;904;47.814;11.134;2023-08-06T00:14:09;16.60;99.90
1812;DHT22;904;47.814;11.134;2023-08-06T00:16:36;16.50;99.70
1812;DHT22;904;47.814;11.134;2023-08-06T00:19:03;16.40;99.90
1812;DHT22;904;47.814;11.134;2023-08-06T00:21:30;16.40;99.90
1812;DHT22;904;47.814;11.134;2023-08-06T00:23:57;16.40;99.90
1812;DHT22;904;47.814;11.134;2023-08-06T00:26:25;16.40;99.80
1812;DHT22;904;47.814;11.134;2023-08-06T00:28:52;16.40;99.70
1812;DHT22;904;47.814;11.134;2023-08-06T00:31:19;16.40;99.40
1812;DHT22;904;47.814;11.134;2023-08-06T00:33:46;16.40;99.50
1812;DHT22;904;47.814;11.134;2023-08-06T00:36:12;16.40;99.50
1812;DHT22;904;47.814;11.134;2023-08-06T00:38:39;16.30;99.90
1812;DHT22;904;47.814;11.134;2023-08-06T00:41:06;16.40;99.70
1812;DHT22;904;47.814;11.134;2023-08-06T00:43:34;16.40;99.70
1812;DHT22;904;47.814;11.134;2023-08-06T00:46:01;16.40;99.70
1812;DHT22;904;47.814;11.134;2023-08-06T00:48:28;16.40;99.60
1812;DHT22;904;47.814;11.134;2023-08-06T00:50:55;16.40;99.70
1812;DHT22;904;47.814;11.134;2023-08-06T00:53:22;16.40;99.90
1812;DHT22;904;47.814;11.134;2023-08-06T00:55:50;16.30;99.90
1812;DHT22;904;47.814;11.134;2023-08-06T00:58:17;16.30;99.90
1812;DHT22;904;47.814;11.134;2023-08-06T01:00:46;16.30;99.60
1812;DHT22;904;47.814;11.134;2023-08-06T01:03:13;16.30;99.50
1812;DHT22;904;47.814;11.134;2023-08-06T01:05:41;16.30;99.20
1812;DHT22;904;47.814;11.134;2023-08-06T01:08:19;16.20;98.60
1812;DHT22;904;47.814;11.134;2023-08-06T01:11:00;16.10;98.70
1812;DHT22;904;47.814;11.134;2023-08-06T01:13:33;15.90;99.00
1812;DHT22;904;47.814;11.134;2023-08-06T01:16:04;15.90;99.20
1812;DHT22;904;47.814;11.134;2023-08-06T01:18:32;15.90;98.80
1812;DHT22;904;47.814;11.134;2023-08-06T01:21:00;15.80;99.20
1812;DHT22;904;47.814;11.134;2023-08-06T01:23:27;15.80;99.60
1812;DHT22;904;47.814;11.134;2023-08-06T01:25:58;15.70;99.80
1812;DHT22;904;47.814;11.134;2023-08-06T01:28:33;15.70;99.90
1812;DHT22;904;47.814;11.134;2023-08-06T01:31:07;15.80;99.90
1812;DHT22;904;47.814;11.134;2023-08-06T01:33:36;15.90;99.90
1812;DHT22;904;47.814;11.134;2023-08-06T01:36:09;15.90;99.90
1812;DHT22;904;47.814;11.134;2023-08-06T01:38:36;15.90;99.80
1812;DHT22;904;47.814;11.134;2023-08-06T01:41:03;16.00;99.90
1812;DHT22;904;47.814;11.134;2023-08-06T01:43:30;16.00;99.90
1812;DHT22;904;47.814;11.134;2023-08-06T01:45:57;16.10;99.50
1812;DHT22;904;47.814;11.134;2023-08-06T01:48:24;16.10;99.10
1812;DHT22;904;47.814;11.134;2023-08-06T01:50:51;16.10;98.70
1812;DHT22;904;47.814;11.134;2023-08-06T01:53:19;15.90;98.60
1812;DHT22;904;47.814;11.134;2023-08-06T01:55:48;15.90;98.90
1812;DHT22;904;47.814;11.134;2023-08-06T01:58:15;16.00;98.70
1812;DHT22;904;47.814;11.134;2023-08-06T02:00:42;16.00;98.70
1812;DHT22;904;47.814;11.134;2023-08-06T02:03:09;16.00;99.10
1812;DHT22;904;47.814;11.134;2023-08-06T02:05:35;16.00;99.00
1812;DHT22;904;47.814;11.134;2023-08-06T02:08:02;16.00;99.10
1812;DHT22;904;47.814;11.134;2023-08-06T02:10:31;16.10;99.30
1812;DHT22;904;47.814;11.134;2023-08-06T02:12:58;16.10;99.50
1812;DHT22;904;47.814;11.134;2023-08-06T02:15:25;16.10;99.40
1812;DHT22;904;47.814;11.134;2023-08-06T02:17:51;16.10;99.30
1812;DHT22;904;47.814;11.134;2023-08-06T02:20:18;16.10;99.00
1812;DHT22;904;47.814;11.134;2023-08-06T02:22:45;16.10;98.30
1812;DHT22;904;47.814;11.134;2023-08-06T02:25:17;16.10;98.40
1812;DHT22;904;47.814;11.134;2023-08-06T02:27:45;16.10;98.40
1812;DHT22;904;47.814;11.134;2023-08-06T02:30:12;16.10;98.40
1812;DHT22;904;47.814;11.134;2023-08-06T02:32:39;16.10;98.30
1812;DHT22;904;47.814;11.134;2023-08-06T02:35:06;16.10;98.00
1812;DHT22;904;47.814;11.134;2023-08-06T02:37:33;16.00;97.90
1812;DHT22;904;47.814;11.134;2023-08-06T02:40:00;16.00;97.60
1812;DHT22;904;47.814;11.134;2023-08-06T02:42:27;16.00;97.60
1812;DHT22;904;47.814;11.134;2023-08-06T02:44:56;15.90;97.20
1812;DHT22;904;47.814;11.134;2023-08-06T02:47:23;15.90;97.40
1812;DHT22;904;47.814;11.134;2023-08-06T02:49:50;15.90;97.20
1812;DHT22;904;47.814;11.134;2023-08-06T02:52:17;15.90;97.30
1812;DHT22;904;47.814;11.134;2023-08-06T02:54:44;15.90;97.80
1812;DHT22;904;47.814;11.134;2023-08-06T02:57:11;15.90;97.80
1812;DHT22;904;47.814;11.134;2023-08-06T02:59:37;15.90;98.10
1812;DHT22;904;47.814;11.134;2023-08-06T03:02:06;15.90;97.80
1812;DHT22;904;47.814;11.134;2023-08-06T03:04:33;15.90;98.00
1812;DHT22;904;47.814;11.134;2023-08-06T03:07:00;15.90;97.50
1812;DHT22;904;47.814;11.134;2023-08-06T03:09:27;15.90;97.60
1812;DHT22;904;47.814;11.134;2023-08-06T03:11:53;15.90;97.40
1812;DHT22;904;47.814;11.134;2023-08-06T03:14:20;15.90;97.70
1812;DHT22;904;47.814;11.134;2023-08-06T03:16:47;15.90;97.50
1812;DHT22;904;47.814;11.134;2023-08-06T03:19:15;15.90;97.50
1812;DHT22;904;47.814;11.134;2023-08-06T03:21:42;15.80;97.90
1812;DHT22;904;47.814;11.134;2023-08-06T03:24:09;15.70;98.10
1812;DHT22;904;47.814;11.134;2023-08-06T03:26:36;15.70;98.20
1812;DHT22;904;47.814;11.134;2023-08-06T03:29:03;15.70;98.00
1812;DHT22;904;47.814;11.134;2023-08-06T03:31:30;15.60;98.10
1812;DHT22;904;47.814;11.134;2023-08-06T03:33:57;15.60;98.20
1812;DHT22;904;47.814;11.134;2023-08-06T03:36:25;15.60;98.40
1812;DHT22;904;47.814;11.134;2023-08-06T03:38:52;15.70;98.30
1812;DHT22;904;47.814;11.134;2023-08-06T03:41:19;15.70;98.30
1812;DHT22;904;47.814;11.134;2023-08-06T03:43:45;15.60;98.40
1812;DHT22;904;47.814;11.134;2023-08-06T03:46:12;15.60;98.10
1812;DHT22;904;47.814;11.134;2023-08-06T03:48:39;15.60;98.30
1812;DHT22;904;47.814;11.134;2023-08-06T03:51:06;15.60;98.30
1812;DHT22;904;47.814;11.134;2023-08-06T03:53:34;15.60;98.20
1812;DHT22;904;47.814;11.134;2023-08-06T03:56:01;15.60;98.10
1812;DHT22;904;47.814;11.134;2023-08-06T03:58:28;15.60;98.00
1812;DHT22;904;47.814;11.134;2023-08-06T04:00:59;15.60;97.60
1812;DHT22;904;47.814;11.134;2023-08-06T04:03:26;15.60;97.50
1812;DHT22;904;47.814;11.134;2023-08-06T04:05:54;15.50;97.40
1812;DHT22;904;47.814;11.134;2023-08-06T04:08:21;15.50;97.30
1812;DHT22;904;47.814;11.134;2023-08-06T04:10:51;15.50;97.60
1812;DHT22;904;47.814;11.134;2023-08-06T04:13:18;15.50;97.50
1812;DHT22;904;47.814;11.134;2023-08-06T04:15:45;15.50;97.40
1812;DHT22;904;47.814;11.134;2023-08-06T04:18:12;15.50;97.40
1812;DHT22;904;47.814;11.134;2023-08-06T04:20:42;15.50;97.30
1812;DHT22;904;47.814;11.134;2023-08-06T04:23:10;15.50;97.30
1812;DHT22;904;47.814;11.134;2023-08-06T04:25:37;15.50;97.30
1812;DHT22;904;47.814;11.134;2023-08-06T04:28:05;15.40;97.60
1812;DHT22;904;47.814;11.134;2023-08-06T04:30:32;15.50;98.10
1812;DHT22;904;47.814;11.134;2023-08-06T04:32:59;15.40;97.70
1812;DHT22;904;47.814;11.134;2023-08-06T04:35:26;15.40;97.70
1812;DHT22;904;47.814;11.134;2023-08-06T04:37:53;15.40;97.40
1812;DHT22;904;47.814;11.134;2023-08-06T04:40:20;15.30;97.30
1812;DHT22;904;47.814;11.134;2023-08-06T04:42:47;15.30;97.30
1812;DHT22;904;47.814;11.134;2023-08-06T04:45:15;15.30;97.10
1812;DHT22;904;47.814;11.134;2023-08-06T04:47:42;15.30;97.20
1812;DHT22;904;47.814;11.134;2023-08-06T04:50:09;15.30;97.50
1812;DHT22;904;47.814;11.134;2023-08-06T04:52:37;15.30;97.50
1812;DHT22;904;47.814;11.134;2023-08-06T04:55:04;15.30;97.70
1812;DHT22;904;47.814;11.134;2023-08-06T04:57:32;15.20;97.40
1812;DHT22;904;47.814;11.134;2023-08-06T04:59:59;15.20;97.40
1812;DHT22;904;47.814;11.134;2023-08-06T05:02:27;15.20;97.80
1812;DHT22;904;47.814;11.134;2023-08-06T05:04:54;15.30;97.70
1812;DHT22;904;47.814;11.134;2023-08-06T05:07:21;15.30;97.80
1812;DHT22;904;47.814;11.134;2023-08-06T05:09:48;15.30;97.80
1812;DHT22;904;47.814;11.134;2023-08-06T05:12:15;15.30;98.10
1812;DHT22;904;47.814;11.134;2023-08-06T05:14:42;15.30;98.10
1812;DHT22;904;47.814;11.134;2023-08-06T05:17:08;15.30;98.20
1812;DHT22;904;47.814;11.134;2023-08-06T05:19:37;15.30;98.20
1812;DHT22;904;47.814;11.134;2023-08-06T05:22:04;15.30;98.10
1812;DHT22;904;47.814;11.134;2023-08-06T05:24:31;15.40;98.30
1812;DHT22;904;47.814;11.134;2023-08-06T05:26:58;15.30;98.40
1812;DHT22;904;47.814;11.134;2023-08-06T05:29:25;15.40;98.70
1812;DHT22;904;47.814;11.134;2023-08-06T05:31:52;15.40;98.90
1812;DHT22;904;47.814;11.134;2023-08-06T05:34:19;15.40;98.70
1812;DHT22;904;47.814;11.134;2023-08-06T05:36:47;15.50;98.70
1812;DHT22;904;47.814;11.134;2023-08-06T05:39:14;15.60;99.00
1812;DHT22;904;47.814;11.134;2023-08-06T05:41:41;15.60;99.20
1812;DHT22;904;47.814;11.134;2023-08-06T05:44:08;15.70;99.50
1812;DHT22;904;47.814;11.134;2023-08-06T05:46:35;15.70;99.20
1812;DHT22;904;47.814;11.134;2023-08-06T05:49:02;15.80;99.10
1812;DHT22;904;47.814;11.134;2023-08-06T05:51:29;15.80;99.20
1812;DHT22;904;47.814;11.134;2023-08-06T05:53:57;15.90;99.40
1812;DHT22;904;47.814;11.134;2023-08-06T05:56:24;16.00;99.30
1812;DHT22;904;47.814;11.134;2023-08-06T05:58:51;16.10;98.90
1812;DHT22;904;47.814;11.134;2023-08-06T06:01:18;16.10;98.40
1812;DHT22;904;47.814;11.134;2023-08-06T06:03:45;16.20;98.20
1812;DHT22;904;47.814;11.134;2023-08-06T06:06:12;16.20;97.40
1812;DHT22;904;47.814;11.134;2023-08-06T06:08:39;16.20;97.60
1812;DHT22;904;47.814;11.134;2023-08-06T06:11:08;16.20;96.90
1812;DHT22;904;47.814;11.134;2023-08-06T06:13:34;16.20;96.50
1812;DHT22;904;47.814;11.134;2023-08-06T06:16:01;16.20;96.40
1812;DHT22;904;47.814;11.134;2023-08-06T06:18:28;16.30;96.70
1812;DHT22;904;47.814;11.134;2023-08-06T06:20:55;16.40;97.30
1812;DHT22;904;47.814;11.134;2023-08-06T06:23:22;16.50;98.00
1812;DHT22;904;47.814;11.134;2023-08-06T06:25:49;16.70;98.20
1812;DHT22;904;47.814;11.134;2023-08-06T06:28:18;16.80;97.00
1812;DHT22;904;47.814;11.134;2023-08-06T06:30:45;16.90;96.60
1812;DHT22;904;47.814;11.134;2023-08-06T06:33:12;17.10;96.90
1812;DHT22;904;47.814;11.134;2023-08-06T06:35:39;17.10;94.70
1812;DHT22;904;47.814;11.134;2023-08-06T06:38:06;17.10;93.90
1812;DHT22;904;47.814;11.134;2023-08-06T06:40:33;17.00;93.20
1812;DHT22;904;47.814;11.134;2023-08-06T06:43:00;17.00;91.30
1812;DHT22;904;47.814;11.134;2023-08-06T06:45:28;16.90;91.40
1812;DHT22;904;47.814;11.134;2023-08-06T06:47:55;16.80;91.50
1812;DHT22;904;47.814;11.134;2023-08-06T06:50:22;16.90;92.10
1812;DHT22;904;47.814;11.134;2023-08-06T06:52:49;16.90;91.90
1812;DHT22;904;47.814;11.134;2023-08-06T06:55:16;16.80;91.30
1812;DHT22;904;47.814;11.134;2023-08-06T06:57:43;16.80;91.60
1812;DHT22;904;47.814;11.134;2023-08-06T07:00:11;16.80;92.10
1812;DHT22;904;47.814;11.134;2023-08-06T07:02:39;16.80;92.30
1812;DHT22;904;47.814;11.134;2023-08-06T07:05:06;16.80;92.70
1812;DHT22;904;47.814;11.134;2023-08-06T07:07:33;16.80;93.30
1812;DHT22;904;47.814;11.134;2023-08-06T07:10:01;16.80;93.60
1812;DHT22;904;47.814;11.134;2023-08-06T07:12:27;16.80;94.00
1812;DHT22;904;47.814;11.134;2023-08-06T07:14:54;16.70;94.00
1812;DHT22;904;47.814;11.134;2023-08-06T07:17:21;16.70;94.50
1812;DHT22;904;47.814;11.134;2023-08-06T07:19:50;16.70;94.90
1812;DHT22;904;47.814;11.134;2023-08-06T07:22:17;16.70;95.20
1812;DHT22;904;47.814;11.134;2023-08-06T07:24:43;16.70;95.40
1812;DHT22;904;47.814;11.134;2023-08-06T07:27:10;16.70;95.60
1812;DHT22;904;47.814;11.134;2023-08-06T07:29:37;16.70;95.70
1812;DHT22;904;47.814;11.134;2023-08-06T07:32:07;16.70;95.40
1812;DHT22;904;47.814;11.134;2023-08-06T07:34:34;16.70;95.60
1812;DHT22;904;47.814;11.134;2023-08-06T07:37:02;16.70;95.10
1812;DHT22;904;47.814;11.134;2023-08-06T07:39:29;16.70;94.70
1812;DHT22;904;47.814;11.134;2023-08-06T07:41:56;16.70;94.60
1812;DHT22;904;47.814;11.134;2023-08-06T07:44:23;16.80;94.20
1812;DHT22;904;47.814;11.134;2023-08-06T07:46:50;16.70;93.70
1812;DHT22;904;47.814;11.134;2023-08-06T07:49:17;16.70;94.50
1812;DHT22;904;47.814;11.134;2023-08-06T07:51:44;16.80;93.70
1812;DHT22;904;47.814;11.134;2023-08-06T07:54:12;16.90;94.00
1812;DHT22;904;47.814;11.134;2023-08-06T07:56:39;16.90;93.50
1812;DHT22;904;47.814;11.134;2023-08-06T07:59:06;16.90;94.40
1812;DHT22;904;47.814;11.134;2023-08-06T08:01:33;17.00;94.50
1812;DHT22;904;47.814;11.134;2023-08-06T08:04:00;17.00;91.50
1812;DHT22;904;47.814;11.134;2023-08-06T08:06:27;16.90;92.90
1812;DHT22;904;47.814;11.134;2023-08-06T08:08:54;17.00;91.60
1812;DHT22;904;47.814;11.134;2023-08-06T08:11:22;16.90;90.80
1812;DHT22;904;47.814;11.134;2023-08-06T08:13:49;16.90;92.10
1812;DHT22;904;47.814;11.134;2023-08-06T08:16:16;16.90;91.10
1812;DHT22;904;47.814;11.134;2023-08-06T08:18:43;17.00;90.90
1812;DHT22;904;47.814;11.134;2023-08-06T08:21:11;17.10;90.20
1812;DHT22;904;47.814;11.134;2023-08-06T08:23:38;17.20;89.90
1812;DHT22;904;47.814;11.134;2023-08-06T08:26:05;17.30;90.80
1812;DHT22;904;47.814;11.134;2023-08-06T08:28:33;17.50;88.50
1812;DHT22;904;47.814;11.134;2023-08-06T08:31:00;17.60;87.20
1812;DHT22;904;47.814;11.134;2023-08-06T08:33:27;17.60;86.60
1812;DHT22;904;47.814;11.134;2023-08-06T08:35:54;17.60;85.60
1812;DHT22;904;47.814;11.134;2023-08-06T08:38:21;17.60;85.20
1812;DHT22;904;47.814;11.134;2023-08-06T08:40:52;17.60;85.50
1812;DHT22;904;47.814;11.134;2023-08-06T08:43:21;17.70;86.30
1812;DHT22;904;47.814;11.134;2023-08-06T08:45:51;17.70;84.90
1812;DHT22;904;47.814;11.134;2023-08-06T08:48:18;17.70;82.90
1812;DHT22;904;47.814;11.134;2023-08-06T08:50:47;17.60;82.90
1812;DHT22;904;47.814;11.134;2023-08-06T08:53:16;17.70;82.70
1812;DHT22;904;47.814;11.134;2023-08-06T08:55:43;17.60;82.60
1812;DHT22;904;47.814;11.134;2023-08-06T08:58:11;17.70;83.10
1812;DHT22;904;47.814;11.134;2023-08-06T09:00:38;17.70;81.30
1812;DHT22;904;47.814;11.134;2023-08-06T09:03:07;17.60;80.00
1812;DHT22;904;47.814;11.134;2023-08-06T09:05:35;17.70;80.90
1812;DHT22;904;47.814;11.134;2023-08-06T09:08:04;17.60;81.40
1812;DHT22;904;47.814;11.134;2023-08-06T09:10:31;17.70;81.70
1812;DHT22;904;47.814;11.134;2023-08-06T09:12:58;17.60;81.00
1812;DHT22;904;47.814;11.134;2023-08-06T09:15:27;17.60;80.80
1812;DHT22;904;47.814;11.134;2023-08-06T09:17:54;17.60;79.70
1812;DHT22;904;47.814;11.134;2023-08-06T09:20:22;17.60;81.30
1812;DHT22;904;47.814;11.134;2023-08-06T09:22:52;17.60;81.20
1812;DHT22;904;47.814;11.134;2023-08-06T09:25:21;17.80;83.70
1812;DHT22;904;47.814;11.134;2023-08-06T09:27:50;17.90;80.70
1812;DHT22;904;47.814;11.134;2023-08-06T09:30:29;17.90;81.40
1812;DHT22;904;47.814;11.134;2023-08-06T09:32:57;18.00;81.60
1812;DHT22;904;47.814;11.134;2023-08-06T09:35:27;17.90;80.20
1812;DHT22;904;47.814;11.134;2023-08-06T09:37:54;17.80;80.00
1812;DHT22;904;47.814;11.134;2023-08-06T09:40:25;17.70;80.30
1812;DHT22;904;47.814;11.134;2023-08-06T09:42:53;17.60;79.90
1812;DHT22;904;47.814;11.134;2023-08-06T09:45:20;17.60;82.00
1812;DHT22;904;47.814;11.134;2023-08-06T09:47:47;17.50;81.60
1812;DHT22;904;47.814;11.134;2023-08-06T09:50:16;17.40;82.80
1812;DHT22;904;47.814;11.134;2023-08-06T09:52:45;17.30;83.50
1812;DHT22;904;47.814;11.134;2023-08-06T09:55:13;17.30;85.80
1812;DHT22;904;47.814;11.134;2023-08-06T09:57:41;17.50;85.50
1812;DHT22;904;47.814;11.134;2023-08-06T10:00:10;17.50;84.90
1812;DHT22;904;47.814;11.134;2023-08-06T10:02:38;17.50;85.10
1812;DHT22;904;47.814;11.134;2023-08-06T10:05:05;17.60;87.00
1812;DHT22;904;47.814;11.134;2023-08-06T10:07:35;17.50;86.10
1812;DHT22;904;47.814;11.134;2023-08-06T10:10:04;17.50;87.60
1812;DHT22;904;47.814;11.134;2023-08-06T10:12:33;17.50;88.00
1812;DHT22;904;47.814;11.134;2023-08-06T10:15:04;17.40;90.00
1812;DHT22;904;47.814;11.134;2023-08-06T10:17:34;17.40;88.80
1812;DHT22;904;47.814;11.134;2023-08-06T10:20:04;17.50;89.60
1812;DHT22;904;47.814;11.134;2023-08-06T10:22:33;17.50;88.60
1812;DHT22;904;47.814;11.134;2023-08-06T10:25:01;17.50;88.00
1812;DHT22;904;47.814;11.134;2023-08-06T10:27:33;17.40;90.20
1812;DHT22;904;47.814;11.134;2023-08-06T10:30:21;17.50;90.10
1812;DHT22;904;47.814;11.134;2023-08-06T10:32:48;17.40;89.80
1812;DHT22;904;47.814;11.134;2023-08-06T10:35:34;17.50;89.00
1812;DHT22;904;47.814;11.134;2023-08-06T10:38:07;17.50;88.30
1812;DHT22;904;47.814;11.134;2023-08-06T10:40:34;17.60;90.10
1812;DHT22;904;47.814;11.134;2023-08-06T10:43:04;17.70;90.50
1812;DHT22;904;47.814;11.134;2023-08-06T10:45:34;17.80;90.50
1812;DHT22;904;47.814;11.134;2023-08-06T10:48:02;17.70;90.50
1812;DHT22;904;47.814;11.134;2023-08-06T10:50:31;17.60;89.00
1812;DHT22;904;47.814;11.134;2023-08-06T10:53:04;17.50;89.20
1812;DHT22;904;47.814;11.134;2023-08-06T10:55:31;17.50;88.80
1812;DHT22;904;47.814;11.134;2023-08-06T10:57:58;17.30;90.00
1812;DHT22;904;47.814;11.134;2023-08-06T11:00:27;17.10;89.60
1812;DHT22;904;47.814;11.134;2023-08-06T11:02:54;17.00;90.80
1812;DHT22;904;47.814;11.134;2023-08-06T11:05:21;16.90;91.40
1812;DHT22;904;47.814;11.134;2023-08-06T11:07:48;16.90;91.40
1812;DHT22;904;47.814;11.134;2023-08-06T11:10:17;16.90;91.90
1812;DHT22;904;47.814;11.134;2023-08-06T11:12:44;16.80;91.20
1812;DHT22;904;47.814;11.134;2023-08-06T11:15:11;16.70;91.80
1812;DHT22;904;47.814;11.134;2023-08-06T11:17:41;16.80;92.70
1812;DHT22;904;47.814;11.134;2023-08-06T11:20:09;16.60;93.00
1812;DHT22;904;47.814;11.134;2023-08-06T11:22:40;16.70;92.60
1812;DHT22;904;47.814;11.134;2023-08-06T11:25:07;16.70;92.50
1812;DHT22;904;47.814;11.134;2023-08-06T11:27:36;16.80;92.20
1812;DHT22;904;47.814;11.134;2023-08-06T11:30:04;16.80;92.50
1812;DHT22;904;47.814;11.134;2023-08-06T11:32:31;16.70;92.20
1812;DHT22;904;47.814;11.134;2023-08-06T11:35:09;16.70;92.50
1812;DHT22;904;47.814;11.134;2023-08-06T11:37:39;16.50;92.70
1812;DHT22;904;47.814;11.134;2023-08-06T11:40:08;16.40;93.00
1812;DHT22;904;47.814;11.134;2023-08-06T11:42:37;16.40;93.50
1812;DHT22;904;47.814;11.134;2023-08-06T11:45:05;16.50;93.90
1812;DHT22;904;47.814;11.134;2023-08-06T11:47:32;16.60;92.70
1812;DHT22;904;47.814;11.134;2023-08-06T11:50:00;16.60;93.00
1812;DHT22;904;47.814;11.134;2023-08-06T11:52:31;16.40;92.90
1812;DHT22;904;47.814;11.134;2023-08-06T11:55:02;16.50;93.20
1812;DHT22;904;47.814;11.134;2023-08-06T11:57:32;16.60;93.90
1812;DHT22;904;47.814;11.134;2023-08-06T12:00:04;16.70;95.00
1812;DHT22;904;47.814;11.134;2023-08-06T12:02:33;16.70;93.20
1812;DHT22;904;47.814;11.134;2023-08-06T12:05:09;16.70;93.60
1812;DHT22;904;47.814;11.134;2023-08-06T12:07:42;16.80;95.30
1812;DHT22;904;47.814;11.134;2023-08-06T12:10:10;16.80;93.10
1812;DHT22;904;47.814;11.134;2023-08-06T12:12:37;16.90;93.30
1812;DHT22;904;47.814;11.134;2023-08-06T12:15:06;17.10;92.80
1812;DHT22;904;47.814;11.134;2023-08-06T12:17:33;17.10;92.00
1812;DHT22;904;47.814;11.134;2023-08-06T12:20:03;17.10;92.30
1812;DHT22;904;47.814;11.134;2023-08-06T12:22:33;17.20;93.20
1812;DHT22;904;47.814;11.134;2023-08-06T12:25:04;17.30;92.40
1812;DHT22;904;47.814;11.134;2023-08-06T12:27:33;17.50;92.40
1812;DHT22;904;47.814;11.134;2023-08-06T12:30:00;17.60;91.50
1812;DHT22;904;47.814;11.134;2023-08-06T12:32:29;17.50;90.60
1812;DHT22;904;47.814;11.134;2023-08-06T12:34:56;17.60;92.30
1812;DHT22;904;47.814;11.134;2023-08-06T12:37:24;17.70;91.80
1812;DHT22;904;47.814;11.134;2023-08-06T12:39:53;17.80;90.20
1812;DHT22;904;47.814;11.134;2023-08-06T12:42:22;17.80;87.70
1812;DHT22;904;47.814;11.134;2023-08-06T12:44:54;17.90;88.20
1812;DHT22;904;47.814;11.134;2023-08-06T12:47:22;18.00;90.00
1812;DHT22;904;47.814;11.134;2023-08-06T12:49:49;18.10;90.10
1812;DHT22;904;47.814;11.134;2023-08-06T12:52:16;18.10;88.00
1812;DHT22;904;47.814;11.134;2023-08-06T12:54:47;18.20;85.50
1812;DHT22;904;47.814;11.134;2023-08-06T12:57:15;18.20;87.60
1812;DHT22;904;47.814;11.134;2023-08-06T12:59:43;18.10;86.70
1812;DHT22;904;47.814;11.134;2023-08-06T13:02:10;17.90;86.00
1812;DHT22;904;47.814;11.134;2023-08-06T13:04:37;17.90;87.90
1812;DHT22;904;47.814;11.134;2023-08-06T13:07:09;17.90;89.70
1812;DHT22;904;47.814;11.134;2023-08-06T13:09:36;17.90;90.40
1812;DHT22;904;47.814;11.134;2023-08-06T13:12:03;17.80;90.60
1812;DHT22;904;47.814;11.134;2023-08-06T13:14:33;17.60;90.90
1812;DHT22;904;47.814;11.134;2023-08-06T13:17:00;17.60;91.30
1812;DHT22;904;47.814;11.134;2023-08-06T13:19:28;17.60;91.00
1812;DHT22;904;47.814;11.134;2023-08-06T13:22:02;17.60;91.10
1812;DHT22;904;47.814;11.134;2023-08-06T13:24:31;17.40;90.50
1812;DHT22;904;47.814;11.134;2023-08-06T13:26:59;17.20;91.30
1812;DHT22;904;47.814;11.134;2023-08-06T13:29:26;17.10;91.20
1812;DHT22;904;47.814;11.134;2023-08-06T13:31:56;17.10;91.50
1812;DHT22;904;47.814;11.134;2023-08-06T13:34:28;17.10;91.80
1812;DHT22;904;47.814;11.134;2023-08-06T13:36:55;16.90;91.50
1812;DHT22;904;47.814;11.134;2023-08-06T13:39:24;16.80;92.20
1812;DHT22;904;47.814;11.134;2023-08-06T13:41:54;17.00;93.80
1812;DHT22;904;47.814;11.134;2023-08-06T13:44:21;17.10;94.30
1812;DHT22;904;47.814;11.134;2023-08-06T13:46:48;17.20;94.60
1812;DHT22;904;47.814;11.134;2023-08-06T13:49:16;17.40;93.60
1812;DHT22;904;47.814;11.134;2023-08-06T13:51:43;17.50;94.40
1812;DHT22;904;47.814;11.134;2023-08-06T13:54:10;17.60;93.90
1812;DHT22;904;47.814;11.134;2023-08-06T13:56:37;17.50;92.60
1812;DHT22;904;47.814;11.134;2023-08-06T13:59:04;17.50;93.40
1812;DHT22;904;47.814;11.134;2023-08-06T14:01:32;17.60;93.00
1812;DHT22;904;47.814;11.134;2023-08-06T14:03:59;17.60;91.80
1812;DHT22;904;47.814;11.134;2023-08-06T14:06:27;17.60;91.60
1812;DHT22;904;47.814;11.134;2023-08-06T14:08:59;17.60;91.80
1812;DHT22;904;47.814;11.134;2023-08-06T14:11:26;17.60;90.50
1812;DHT22;904;47.814;11.134;2023-08-06T14:13:53;17.60;91.10
1812;DHT22;904;47.814;11.134;2023-08-06T14:16:20;17.60;91.40
1812;DHT22;904;47.814;11.134;2023-08-06T14:18:47;17.50;91.10
1812;DHT22;904;47.814;11.134;2023-08-06T14:21:14;17.40;90.90
1812;DHT22;904;47.814;11.134;2023-08-06T14:23:43;17.30;91.40
1812;DHT22;904;47.814;11.134;2023-08-06T14:26:11;17.30;91.70
1812;DHT22;904;47.814;11.134;2023-08-06T14:28:40;17.30;91.30
1812;DHT22;904;47.814;11.134;2023-08-06T14:31:10;17.40;91.50
1812;DHT22;904;47.814;11.134;2023-08-06T14:33:36;17.40;91.10
1812;DHT22;904;47.814;11.134;2023-08-06T14:36:04;17.40;91.60
1812;DHT22;904;47.814;11.134;2023-08-06T14:38:32;17.40;91.40
1812;DHT22;904;47.814;11.134;2023-08-06T14:41:00;17.40;91.70
1812;DHT22;904;47.814;11.134;2023-08-06T14:43:27;17.40;91.20
1812;DHT22;904;47.814;11.134;2023-08-06T14:45:54;17.30;90.70
1812;DHT22;904;47.814;11.134;2023-08-06T14:48:21;17.50;91.00
1812;DHT22;904;47.814;11.134;2023-08-06T14:50:48;17.50;91.20
1812;DHT22;904;47.814;11.134;2023-08-06T14:53:15;17.40;90.70
1812;DHT22;904;47.814;11.134;2023-08-06T14:55:42;17.30;91.30
1812;DHT22;904;47.814;11.134;2023-08-06T14:58:10;17.30;91.10
1812;DHT22;904;47.814;11.134;2023-08-06T15:00:38;17.20;91.40
1812;DHT22;904;47.814;11.134;2023-08-06T15:03:04;17.20;91.50
1812;DHT22;904;47.814;11.134;2023-08-06T15:05:32;17.20;91.60
1812;DHT22;904;47.814;11.134;2023-08-06T15:07:59;17.20;91.80
1812;DHT22;904;47.814;11.134;2023-08-06T15:10:26;17.20;91.80
1812;DHT22;904;47.814;11.134;2023-08-06T15:12:53;17.20;91.70
1812;DHT22;904;47.814;11.134;2023-08-06T15:15:21;17.30;92.50
1812;DHT22;904;47.814;11.134;2023-08-06T15:17:48;17.40;92.90
1812;DHT22;904;47.814;11.134;2023-08-06T15:20:16;17.40;91.70
1812;DHT22;904;47.814;11.134;2023-08-06T15:22:43;17.30;91.40
1812;DHT22;904;47.814;11.134;2023-08-06T15:25:10;17.30;92.30
1812;DHT22;904;47.814;11.134;2023-08-06T15:27:37;17.30;92.40
1812;DHT22;904;47.814;11.134;2023-08-06T15:30:06;17.40;92.40
1812;DHT22;904;47.814;11.134;2023-08-06T15:32:35;17.50;92.70
1812;DHT22;904;47.814;11.134;2023-08-06T15:35:01;17.50;91.10
1812;DHT22;904;47.814;11.134;2023-08-06T15:37:29;17.40;91.50
1812;DHT22;904;47.814;11.134;2023-08-06T15:39:56;17.40;90.80
1812;DHT22;904;47.814;11.134;2023-08-06T15:42:23;17.30;90.80
1812;DHT22;904;47.814;11.134;2023-08-06T15:44:50;17.30;91.50
1812;DHT22;904;47.814;11.134;2023-08-06T15:47:17;17.40;91.60
1812;DHT22;904;47.814;11.134;2023-08-06T15:49:45;17.40;90.90
1812;DHT22;904;47.814;11.134;2023-08-06T15:52:12;17.40;90.70
1812;DHT22;904;47.814;11.134;2023-08-06T15:54:39;17.30;89.50
1812;DHT22;904;47.814;11.134;2023-08-06T15:57:06;17.30;90.10
1812;DHT22;904;47.814;11.134;2023-08-06T15:59:33;17.30;90.10
1812;DHT22;904;47.814;11.134;2023-08-06T16:02:01;17.20;90.20
1812;DHT22;904;47.814;11.134;2023-08-06T16:04:29;17.20;90.20
1812;DHT22;904;47.814;11.134;2023-08-06T16:06:57;17.00;89.00